sensor_id;sensor_type;location;lat;lon;timestamp;P1;durP1;ratioP1;P2;durP2;ratioP2
10491;SDS011;5293;51.464;-2.566;2024-02-21T00:00:49;8.73;;;2.83;;
10491;SDS011;5293;51.464;-2.566;2024-02-21T00:03:15;14.40;;;2.80;;
10491;SDS011;5293;51.464;-2.566;2024-02-21T00:05:40;6.03;;;2.20;;
10491;SDS011;5293;51.464;-2.566;2024-02-21T00:08:06;5.87;;;2.47;;
10491;SDS011;5293;51.464;-2.566;2024-02-21T00:10:32;13.27;;;3.37;;
10491;SDS011;5293;51.464;-2.566;2024-02-21T00:12:58;12.63;;;3.00;;
10491;SDS011;5293;51.464;-2.566;2024-02-21T00:15:26;11.00;;;2.73;;
10491;SDS011;5293;51.464;-2.566;2024-02-21T00:17:52;11.03;;;3.10;;
10491;SDS011;5293;51.464;-2.566;2024-02-21T00:20:19;10.77;;;2.73;;
10491;SDS011;5293;51.464;-2.566;2024-02-21T00:22:45;15.17;;;3.00;;
10491;SDS011;5293;51.464;-2.566;2024-02-21T00:25:11;18.97;;;3.40;;
10491;SDS011;5293;51.464;-2.566;2024-02-21T00:27:37;15.10;;;3.33;;
10491;SDS011;5293;51.464;-2.566;2024-02-21T00:30:04;15.67;;;3.43;;
10491;SDS011;5293;51.464;-2.566;2024-02-21T00:32:30;10.83;;;2.90;;
10491;SDS011;5293;51.464;-2.566;2024-02-21T00:34:59;11.73;;;3.07;;
10491;SDS011;5293;51.464;-2.566;2024-02-21T00:37:24;9.20;;;3.30;;
10491;SDS011;5293;51.464;-2.566;2024-02-21T00:39:50;16.27;;;3.20;;
10491;SDS011;5293;51.464;-2.566;2024-02-21T00:42:15;12.90;;;2.47;;
10491;SDS011;5293;51.464;-2.566;2024-02-21T00:44:41;10.27;;;3.13;;
10491;SDS011;5293;51.464;-2.566;2024-02-21T00:47:07;10.20;;;2.93;;
10491;SDS011;5293;51.464;-2.566;2024-02-21T00:49:32;11.13;;;2.60;;
10491;SDS011;5293;51.464;-2.566;2024-02-21T00:51:58;6.63;;;2.10;;
10491;SDS011;5293;51.464;-2.566;2024-02-21T00:54:23;6.20;;;2.07;;
10491;SDS011;5293;51.464;-2.566;2024-02-21T00:56:49;5.37;;;2.20;;
10491;SDS011;5293;51.464;-2.566;2024-02-21T00:59:15;7.27;;;1.90;;
10491;SDS011;5293;51.464;-2.566;2024-02-21T01:01:40;7.23;;;1.93;;
10491;SDS011;5293;51.464;-2.566;2024-02-21T01:04:09;6.13;;;2.20;;
10491;SDS011;5293;51.464;-2.566;2024-02-21T01:06:35;8.80;;;1.90;;
10491;SDS011;5293;51.464;-2.566;2024-02-21T01:09:00;9.37;;;2.40;;
10491;SDS011;5293;51.464;-2.566;2024-02-21T01:11:26;6.33;;;2.13;;
10491;SDS011;5293;51.464;-2.566;2024-02-21T01:13:52;7.40;;;2.20;;
10491;SDS011;5293;51.464;-2.566;2024-02-21T01:16:18;6.50;;;2.07;;
10491;SDS011;5293;51.464;-2.566;2024-02-21T01:18:44;5.50;;;1.60;;
10491;SDS011;5293;51.464;-2.566;2024-02-21T01:21:09;6.43;;;1.90;;
10491;SDS011;5293;51.464;-2.566;2024-02-21T01:23:35;7.60;;;2.00;;
10491;SDS011;5293;51.464;-2.566;2024-02-21T01:26:02;2.93;;;1.73;;
10491;SDS011;5293;51.464;-2.566;2024-02-21T01:28:28;5.53;;;2.10;;
10491;SDS011;5293;51.464;-2.566;2024-02-21T01:30:54;3.03;;;1.67;;
10491;SDS011;5293;51.464;-2.566;2024-02-21T01:33:20;3.77;;;2.00;;
10491;SDS011;5293;51.464;-2.566;2024-02-21T01:35:46;6.73;;;2.43;;
10491;SDS011;5293;51.464;-2.566;2024-02-21T01:38:15;4.00;;;1.93;;
10491;SDS011;5293;51.464;-2.566;2024-02-21T01:40:40;4.37;;;2.07;;
10491;SDS011;5293;51.464;-2.566;2024-02-21T01:43:15;3.80;;;2.00;;
10491;SDS011;5293;51.464;-2.566;2024-02-21T01:45:51;5.63;;;2.00;;
10491;SDS011;5293;51.464;-2.566;2024-02-21T01:48:20;7.33;;;2.50;;
10491;SDS011;5293;51.464;-2.566;2024-02-21T01:50:48;6.60;;;2.03;;
10491;SDS011;5293;51.464;-2.566;2024-02-21T01:53:16;4.77;;;1.83;;
10491;SDS011;5293;51.464;-2.566;2024-02-21T01:55:46;4.60;;;2.03;;
10491;SDS011;5293;51.464;-2.566;2024-02-21T01:58:16;8.80;;;2.60;;
10491;SDS011;5293;51.464;-2.566;2024-02-21T02:00:43;8.23;;;2.60;;
10491;SDS011;5293;51.464;-2.566;2024-02-21T02:03:12;7.57;;;2.67;;
10491;SDS011;5293;51.464;-2.566;2024-02-21T02:05:47;5.90;;;2.30;;
10491;SDS011;5293;51.464;-2.566;2024-02-21T02:08:14;8.63;;;2.47;;
10491;SDS011;5293;51.464;-2.566;2024-02-21T02:10:44;6.90;;;2.73;;
10491;SDS011;5293;51.464;-2.566;2024-02-21T02:13:11;10.43;;;2.90;;
10491;SDS011;5293;51.464;-2.566;2024-02-21T02:15:44;7.77;;;2.80;;
10491;SDS011;5293;51.464;-2.566;2024-02-21T02:18:11;9.70;;;3.13;;
10491;SDS011;5293;51.464;-2.566;2024-02-21T02:20:37;6.37;;;2.77;;
10491;SDS011;5293;51.464;-2.566;2024-02-21T02:23:10;7.60;;;2.57;;
10491;SDS011;5293;51.464;-2.566;2024-02-21T02:25:37;4.67;;;2.23;;
10491;SDS011;5293;51.464;-2.566;2024-02-21T02:28:03;8.63;;;2.60;;
10491;SDS011;5293;51.464;-2.566;2024-02-21T02:30:34;11.53;;;2.93;;
10491;SDS011;5293;51.464;-2.566;2024-02-21T02:33:01;12.97;;;2.50;;
10491;SDS011;5293;51.464;-2.566;2024-02-21T02:35:27;8.37;;;2.33;;
10491;SDS011;5293;51.464;-2.566;2024-02-21T02:37:53;7.00;;;2.60;;
10491;SDS011;5293;51.464;-2.566;2024-02-21T02:40:19;7.37;;;2.20;;
10491;SDS011;5293;51.464;-2.566;2024-02-21T02:42:44;8.00;;;2.43;;
10491;SDS011;5293;51.464;-2.566;2024-02-21T02:45:10;11.40;;;2.50;;
10491;SDS011;5293;51.464;-2.566;2024-02-21T02:47:36;6.13;;;2.47;;
10491;SDS011;5293;51.464;-2.566;2024-02-21T02:50:02;6.27;;;2.70;;
10491;SDS011;5293;51.464;-2.566;2024-02-21T02:52:28;10.33;;;2.77;;
10491;SDS011;5293;51.464;-2.566;2024-02-21T02:54:53;7.03;;;2.47;;
10491;SDS011;5293;51.464;-2.566;2024-02-21T02:57:21;5.20;;;2.10;;
10491;SDS011;5293;51.464;-2.566;2024-02-21T02:59:47;7.60;;;2.57;;
10491;SDS011;5293;51.464;-2.566;2024-02-21T03:02:13;6.53;;;1.90;;
10491;SDS011;5293;51.464;-2.566;2024-02-21T03:04:39;7.37;;;2.30;;
10491;SDS011;5293;51.464;-2.566;2024-02-21T03:07:05;6.77;;;2.63;;
10491;SDS011;5293;51.464;-2.566;2024-02-21T03:09:31;5.87;;;2.47;;
10491;SDS011;5293;51.464;-2.566;2024-02-21T03:11:57;6.57;;;2.10;;
10491;SDS011;5293;51.464;-2.566;2024-02-21T03:14:27;6.07;;;2.03;;
10491;SDS011;5293;51.464;-2.566;2024-02-21T03:16:54;11.97;;;2.50;;
10491;SDS011;5293;51.464;-2.566;2024-02-21T03:19:19;7.93;;;2.87;;
10491;SDS011;5293;51.464;-2.566;2024-02-21T03:21:45;5.97;;;2.30;;
10491;SDS011;5293;51.464;-2.566;2024-02-21T03:24:11;5.97;;;2.40;;
10491;SDS011;5293;51.464;-2.566;2024-02-21T03:26:37;5.83;;;2.27;;
10491;SDS011;5293;51.464;-2.566;2024-02-21T03:29:03;5.80;;;2.50;;
10491;SDS011;5293;51.464;-2.566;2024-02-21T03:31:29;6.80;;;2.50;;
10491;SDS011;5293;51.464;-2.566;2024-02-21T03:33:54;4.10;;;2.07;;
10491;SDS011;5293;51.464;-2.566;2024-02-21T03:36:20;6.63;;;2.47;;
10491;SDS011;5293;51.464;-2.566;2024-02-21T03:38:46;8.17;;;2.67;;
10491;SDS011;5293;51.464;-2.566;2024-02-21T03:41:12;6.03;;;2.30;;
10491;SDS011;5293;51.464;-2.566;2024-02-21T03:43:38;5.97;;;2.47;;
10491;SDS011;5293;51.464;-2.566;2024-02-21T03:46:04;6.30;;;2.30;;
10491;SDS011;5293;51.464;-2.566;2024-02-21T03:48:30;7.63;;;2.10;;
10491;SDS011;5293;51.464;-2.566;2024-02-21T03:50:55;8.07;;;2.70;;
10491;SDS011;5293;51.464;-2.566;2024-02-21T03:53:21;6.07;;;2.20;;
10491;SDS011;5293;51.464;-2.566;2024-02-21T03:55:47;3.30;;;2.17;;
10491;SDS011;5293;51.464;-2.566;2024-02-21T03:58:12;5.80;;;2.40;;
10491;SDS011;5293;51.464;-2.566;2024-02-21T04:00:38;6.73;;;1.90;;
10491;SDS011;5293;51.464;-2.566;2024-02-21T04:03:04;5.70;;;2.00;;
10491;SDS011;5293;51.464;-2.566;2024-02-21T04:05:31;2.80;;;1.70;;
10491;SDS011;5293;51.464;-2.566;2024-02-21T04:07:57;6.47;;;1.90;;
10491;SDS011;5293;51.464;-2.566;2024-02-21T04:10:23;4.90;;;1.70;;
10491;SDS011;5293;51.464;-2.566;2024-02-21T04:12:49;5.93;;;1.67;;
10491;SDS011;5293;51.464;-2.566;2024-02-21T04:15:15;4.87;;;1.77;;
10491;SDS011;5293;51.464;-2.566;2024-02-21T04:17:41;3.27;;;1.83;;
10491;SDS011;5293;51.464;-2.566;2024-02-21T04:20:13;4.93;;;1.73;;
10491;SDS011;5293;51.464;-2.566;2024-02-21T04:22:39;9.17;;;2.20;;
10491;SDS011;5293;51.464;-2.566;2024-02-21T04:25:05;6.63;;;2.13;;
10491;SDS011;5293;51.464;-2.566;2024-02-21T04:27:31;4.47;;;1.77;;
10491;SDS011;5293;51.464;-2.566;2024-02-21T04:29:57;3.70;;;1.60;;
10491;SDS011;5293;51.464;-2.566;2024-02-21T04:32:23;5.23;;;1.60;;
10491;SDS011;5293;51.464;-2.566;2024-02-21T04:34:48;6.43;;;1.77;;
10491;SDS011;5293;51.464;-2.566;2024-02-21T04:37:14;5.93;;;1.70;;
10491;SDS011;5293;51.464;-2.566;2024-02-21T04:39:40;3.73;;;1.70;;
10491;SDS011;5293;51.464;-2.566;2024-02-21T04:42:05;3.80;;;1.77;;
10491;SDS011;5293;51.464;-2.566;2024-02-21T04:44:31;6.60;;;1.87;;
10491;SDS011;5293;51.464;-2.566;2024-02-21T04:46:57;4.27;;;1.77;;
10491;SDS011;5293;51.464;-2.566;2024-02-21T04:49:22;7.93;;;1.97;;
10491;SDS011;5293;51.464;-2.566;2024-02-21T04:51:48;6.77;;;1.90;;
10491;SDS011;5293;51.464;-2.566;2024-02-21T04:54:14;8.17;;;2.10;;
10491;SDS011;5293;51.464;-2.566;2024-02-21T04:56:39;8.70;;;2.30;;
10491;SDS011;5293;51.464;-2.566;2024-02-21T04:59:05;5.50;;;2.10;;
10491;SDS011;5293;51.464;-2.566;2024-02-21T05:01:31;3.20;;;1.93;;
10491;SDS011;5293;51.464;-2.566;2024-02-21T05:03:57;4.70;;;2.03;;
10491;SDS011;5293;51.464;-2.566;2024-02-21T05:06:22;7.37;;;2.00;;
10491;SDS011;5293;51.464;-2.566;2024-02-21T05:08:48;5.00;;;2.20;;
10491;SDS011;5293;51.464;-2.566;2024-02-21T05:11:14;5.93;;;1.73;;
10491;SDS011;5293;51.464;-2.566;2024-02-21T05:13:40;5.60;;;1.70;;
10491;SDS011;5293;51.464;-2.566;2024-02-21T05:16:06;4.40;;;1.60;;
10491;SDS011;5293;51.464;-2.566;2024-02-21T05:18:32;5.30;;;1.80;;
10491;SDS011;5293;51.464;-2.566;2024-02-21T05:20:58;4.60;;;2.10;;
10491;SDS011;5293;51.464;-2.566;2024-02-21T05:23:24;3.97;;;1.73;;
10491;SDS011;5293;51.464;-2.566;2024-02-21T05:25:50;5.93;;;1.70;;
10491;SDS011;5293;51.464;-2.566;2024-02-21T05:28:16;1.77;;;1.47;;
10491;SDS011;5293;51.464;-2.566;2024-02-21T05:30:42;3.00;;;1.47;;
10491;SDS011;5293;51.464;-2.566;2024-02-21T05:33:08;4.83;;;1.70;;
10491;SDS011;5293;51.464;-2.566;2024-02-21T05:35:34;4.63;;;1.10;;
10491;SDS011;5293;51.464;-2.566;2024-02-21T05:38:00;3.47;;;1.20;;
10491;SDS011;5293;51.464;-2.566;2024-02-21T05:40:26;3.57;;;1.63;;
10491;SDS011;5293;51.464;-2.566;2024-02-21T05:42:52;5.50;;;1.77;;
10491;SDS011;5293;51.464;-2.566;2024-02-21T05:45:18;3.47;;;1.50;;
10491;SDS011;5293;51.464;-2.566;2024-02-21T05:47:43;4.53;;;1.40;;
10491;SDS011;5293;51.464;-2.566;2024-02-21T05:50:09;3.67;;;1.30;;
10491;SDS011;5293;51.464;-2.566;2024-02-21T05:52:36;5.03;;;1.40;;
10491;SDS011;5293;51.464;-2.566;2024-02-21T05:55:01;6.00;;;1.53;;
10491;SDS011;5293;51.464;-2.566;2024-02-21T05:57:28;5.20;;;1.30;;
10491;SDS011;5293;51.464;-2.566;2024-02-21T05:59:53;3.20;;;1.30;;
10491;SDS011;5293;51.464;-2.566;2024-02-21T06:02:19;2.37;;;1.23;;
10491;SDS011;5293;51.464;-2.566;2024-02-21T06:04:45;3.70;;;1.60;;
10491;SDS011;5293;51.464;-2.566;2024-02-21T06:07:11;7.50;;;1.90;;
10491;SDS011;5293;51.464;-2.566;2024-02-21T06:09:37;7.87;;;2.20;;
10491;SDS011;5293;51.464;-2.566;2024-02-21T06:12:03;8.17;;;1.43;;
10491;SDS011;5293;51.464;-2.566;2024-02-21T06:14:28;3.53;;;1.20;;
10491;SDS011;5293;51.464;-2.566;2024-02-21T06:16:54;8.30;;;1.47;;
10491;SDS011;5293;51.464;-2.566;2024-02-21T06:19:20;2.70;;;1.43;;
10491;SDS011;5293;51.464;-2.566;2024-02-21T06:21:45;4.70;;;1.30;;
10491;SDS011;5293;51.464;-2.566;2024-02-21T06:24:11;4.80;;;1.37;;
10491;SDS011;5293;51.464;-2.566;2024-02-21T06:26:37;5.00;;;1.40;;
10491;SDS011;5293;51.464;-2.566;2024-02-21T06:29:05;3.30;;;1.40;;
10491;SDS011;5293;51.464;-2.566;2024-02-21T06:31:31;4.97;;;1.80;;
10491;SDS011;5293;51.464;-2.566;2024-02-21T06:33:56;3.43;;;1.40;;
10491;SDS011;5293;51.464;-2.566;2024-02-21T06:36:22;7.00;;;1.70;;
10491;SDS011;5293;51.464;-2.566;2024-02-21T06:38:48;2.87;;;1.40;;
10491;SDS011;5293;51.464;-2.566;2024-02-21T06:41:14;2.87;;;1.23;;
10491;SDS011;5293;51.464;-2.566;2024-02-21T06:43:44;5.47;;;1.47;;
10491;SDS011;5293;51.464;-2.566;2024-02-21T06:46:11;7.30;;;1.77;;
10491;SDS011;5293;51.464;-2.566;2024-02-21T06:48:37;4.77;;;1.73;;
10491;SDS011;5293;51.464;-2.566;2024-02-21T06:51:03;5.73;;;1.70;;
10491;SDS011;5293;51.464;-2.566;2024-02-21T06:53:29;3.80;;;1.20;;
10491;SDS011;5293;51.464;-2.566;2024-02-21T06:55:54;3.43;;;1.67;;
10491;SDS011;5293;51.464;-2.566;2024-02-21T06:58:20;4.17;;;1.60;;
10491;SDS011;5293;51.464;-2.566;2024-02-21T07:00:46;6.33;;;2.40;;
10491;SDS011;5293;51.464;-2.566;2024-02-21T07:03:11;2.47;;;1.60;;
10491;SDS011;5293;51.464;-2.566;2024-02-21T07:05:37;5.27;;;1.67;;
10491;SDS011;5293;51.464;-2.566;2024-02-21T07:08:03;4.70;;;1.40;;
10491;SDS011;5293;51.464;-2.566;2024-02-21T07:10:28;9.97;;;1.40;;
10491;SDS011;5293;51.464;-2.566;2024-02-21T07:12:54;9.30;;;1.73;;
10491;SDS011;5293;51.464;-2.566;2024-02-21T07:15:20;2.60;;;1.30;;
10491;SDS011;5293;51.464;-2.566;2024-02-21T07:17:46;4.93;;;1.40;;
10491;SDS011;5293;51.464;-2.566;2024-02-21T07:20:12;5.60;;;1.50;;
10491;SDS011;5293;51.464;-2.566;2024-02-21T07:22:37;3.73;;;1.50;;
10491;SDS011;5293;51.464;-2.566;2024-02-21T07:25:03;2.97;;;1.17;;
10491;SDS011;5293;51.464;-2.566;2024-02-21T07:27:29;6.73;;;1.27;;
10491;SDS011;5293;51.464;-2.566;2024-02-21T07:29:57;6.10;;;1.57;;
10491;SDS011;5293;51.464;-2.566;2024-02-21T07:32:22;5.67;;;1.30;;
10491;SDS011;5293;51.464;-2.566;2024-02-21T07:34:48;4.87;;;1.27;;
10491;SDS011;5293;51.464;-2.566;2024-02-21T07:37:14;0.90;;;0.77;;
10491;SDS011;5293;51.464;-2.566;2024-02-21T07:39:39;6.83;;;1.50;;
10491;SDS011;5293;51.464;-2.566;2024-02-21T07:42:06;2.20;;;1.27;;
10491;SDS011;5293;51.464;-2.566;2024-02-21T07:44:31;1.50;;;1.17;;
10491;SDS011;5293;51.464;-2.566;2024-02-21T07:46:57;6.60;;;1.60;;
10491;SDS011;5293;51.464;-2.566;2024-02-21T07:49:23;5.47;;;1.20;;
10491;SDS011;5293;51.464;-2.566;2024-02-21T07:51:49;5.00;;;1.87;;
10491;SDS011;5293;51.464;-2.566;2024-02-21T07:54:15;2.53;;;1.23;;
10491;SDS011;5293;51.464;-2.566;2024-02-21T07:56:41;4.93;;;1.30;;
10491;SDS011;5293;51.464;-2.566;2024-02-21T07:59:06;3.73;;;1.20;;
10491;SDS011;5293;51.464;-2.566;2024-02-21T08:01:32;1.67;;;1.50;;
10491;SDS011;5293;51.464;-2.566;2024-02-21T08:03:58;2.63;;;1.10;;
10491;SDS011;5293;51.464;-2.566;2024-02-21T08:06:24;1.13;;;1.07;;
10491;SDS011;5293;51.464;-2.566;2024-02-21T08:08:50;3.33;;;1.23;;
10491;SDS011;5293;51.464;-2.566;2024-02-21T08:11:16;6.53;;;1.43;;
10491;SDS011;5293;51.464;-2.566;2024-02-21T08:13:41;2.60;;;1.20;;
10491;SDS011;5293;51.464;-2.566;2024-02-21T08:16:07;2.43;;;0.90;;
10491;SDS011;5293;51.464;-2.566;2024-02-21T08:18:33;5.00;;;1.23;;
10491;SDS011;5293;51.464;-2.566;2024-02-21T08:21:01;4.30;;;1.00;;
10491;SDS011;5293;51.464;-2.566;2024-02-21T08:23:28;2.70;;;0.90;;
10491;SDS011;5293;51.464;-2.566;2024-02-21T08:25:54;2.60;;;1.07;;
10491;SDS011;5293;51.464;-2.566;2024-02-21T08:28:19;3.27;;;1.13;;
10491;SDS011;5293;51.464;-2.566;2024-02-21T08:30:45;6.40;;;1.10;;
10491;SDS011;5293;51.464;-2.566;2024-02-21T08:33:15;2.90;;;0.90;;
10491;SDS011;5293;51.464;-2.566;2024-02-21T08:35:41;4.07;;;0.90;;
10491;SDS011;5293;51.464;-2.566;2024-02-21T08:38:07;2.07;;;0.73;;
10491;SDS011;5293;51.464;-2.566;2024-02-21T08:40:33;0.87;;;0.77;;
10491;SDS011;5293;51.464;-2.566;2024-02-21T08:43:00;2.83;;;1.10;;
10491;SDS011;5293;51.464;-2.566;2024-02-21T08:45:26;4.97;;;1.03;;
10491;SDS011;5293;51.464;-2.566;2024-02-21T08:47:51;1.80;;;0.70;;
10491;SDS011;5293;51.464;-2.566;2024-02-21T08:50:17;1.30;;;0.60;;
10491;SDS011;5293;51.464;-2.566;2024-02-21T08:52:43;3.03;;;1.10;;
10491;SDS011;5293;51.464;-2.566;2024-02-21T08:55:08;0.80;;;0.43;;
10491;SDS011;5293;51.464;-2.566;2024-02-21T08:57:34;2.17;;;0.73;;
10491;SDS011;5293;51.464;-2.566;2024-02-21T09:00:03;4.97;;;1.23;;
10491;SDS011;5293;51.464;-2.566;2024-02-21T09:02:34;2.73;;;0.80;;
10491;SDS011;5293;51.464;-2.566;2024-02-21T09:05:02;2.73;;;0.80;;
10491;SDS011;5293;51.464;-2.566;2024-02-21T09:07:30;0.67;;;0.50;;
10491;SDS011;5293;51.464;-2.566;2024-02-21T09:09:55;2.50;;;0.77;;
10491;SDS011;5293;51.464;-2.566;2024-02-21T09:12:24;1.97;;;0.70;;
10491;SDS011;5293;51.464;-2.566;2024-02-21T09:14:50;2.20;;;0.80;;
10491;SDS011;5293;51.464;-2.566;2024-02-21T09:17:16;2.73;;;1.10;;
10491;SDS011;5293;51.464;-2.566;2024-02-21T09:19:50;3.57;;;0.70;;
10491;SDS011;5293;51.464;-2.566;2024-02-21T09:22:16;1.30;;;0.60;;
10491;SDS011;5293;51.464;-2.566;2024-02-21T09:24:41;1.37;;;0.47;;
10491;SDS011;5293;51.464;-2.566;2024-02-21T09:27:07;3.23;;;0.90;;
10491;SDS011;5293;51.464;-2.566;2024-02-21T09:29:33;1.67;;;0.80;;
10491;SDS011;5293;51.464;-2.566;2024-02-21T09:32:01;1.20;;;0.80;;
10491;SDS011;5293;51.464;-2.566;2024-02-21T09:34:27;1.53;;;0.37;;
10491;SDS011;5293;51.464;-2.566;2024-02-21T09:36:53;0.97;;;0.63;;
10491;SDS011;5293;51.464;-2.566;2024-02-21T09:39:19;2.17;;;0.80;;
10491;SDS011;5293;51.464;-2.566;2024-02-21T09:41:45;0.73;;;0.43;;
10491;SDS011;5293;51.464;-2.566;2024-02-21T09:44:20;1.30;;;0.47;;
10491;SDS011;5293;51.464;-2.566;2024-02-21T09:52:06;1.83;;;0.60;;
10491;SDS011;5293;51.464;-2.566;2024-02-21T09:54:35;0.97;;;0.50;;
10491;SDS011;5293;51.464;-2.566;2024-02-21T09:57:01;0.40;;;0.40;;
10491;SDS011;5293;51.464;-2.566;2024-02-21T09:59:28;0.37;;;0.30;;
10491;SDS011;5293;51.464;-2.566;2024-02-21T10:01:56;0.40;;;0.40;;
10491;SDS011;5293;51.464;-2.566;2024-02-21T10:04:21;0.53;;;0.40;;
10491;SDS011;5293;51.464;-2.566;2024-02-21T10:06:48;2.93;;;0.40;;
10491;SDS011;5293;51.464;-2.566;2024-02-21T10:09:20;1.90;;;0.33;;
10491;SDS011;5293;51.464;-2.566;2024-02-21T10:11:52;1.63;;;0.50;;
10491;SDS011;5293;51.464;-2.566;2024-02-21T10:14:18;0.43;;;0.40;;
10491;SDS011;5293;51.464;-2.566;2024-02-21T10:16:47;0.87;;;0.23;;
10491;SDS011;5293;51.464;-2.566;2024-02-21T10:19:20;0.30;;;0.30;;
10491;SDS011;5293;51.464;-2.566;2024-02-21T10:22:02;0.40;;;0.40;;
10491;SDS011;5293;51.464;-2.566;2024-02-21T10:24:29;0.40;;;0.40;;
10491;SDS011;5293;51.464;-2.566;2024-02-21T10:27:02;0.53;;;0.30;;
10491;SDS011;5293;51.464;-2.566;2024-02-21T10:29:29;1.00;;;0.53;;
10491;SDS011;5293;51.464;-2.566;2024-02-21T10:32:07;0.63;;;0.30;;
10491;SDS011;5293;51.464;-2.566;2024-02-21T10:34:37;0.23;;;0.20;;
10491;SDS011;5293;51.464;-2.566;2024-02-21T10:37:05;2.45;;;0.52;;
10491;SDS011;5293;51.464;-2.566;2024-02-21T10:39:37;0.87;;;0.40;;
10491;SDS011;5293;51.464;-2.566;2024-02-21T10:42:06;0.68;;;0.50;;
10491;SDS011;5293;51.464;-2.566;2024-02-21T10:44:33;0.73;;;0.50;;
10491;SDS011;5293;51.464;-2.566;2024-02-21T10:47:03;2.50;;;0.63;;
10491;SDS011;5293;51.464;-2.566;2024-02-21T10:49:34;1.90;;;1.17;;
10491;SDS011;5293;51.464;-2.566;2024-02-21T10:54:56;2.47;;;0.47;;
10491;SDS011;5293;51.464;-2.566;2024-02-21T10:57:51;1.67;;;0.50;;
10491;SDS011;5293;51.464;-2.566;2024-02-21T11:00:18;2.23;;;0.50;;
10491;SDS011;5293;51.464;-2.566;2024-02-21T11:02:44;1.80;;;0.30;;
10491;SDS011;5293;51.464;-2.566;2024-02-21T11:05:11;2.27;;;0.40;;
10491;SDS011;5293;51.464;-2.566;2024-02-21T11:07:38;0.57;;;0.40;;
10491;SDS011;5293;51.464;-2.566;2024-02-21T11:10:05;1.70;;;0.63;;
10491;SDS011;5293;51.464;-2.566;2024-02-21T11:12:45;12.13;;;1.60;;
10491;SDS011;5293;51.464;-2.566;2024-02-21T11:15:11;2.73;;;1.20;;
10491;SDS011;5293;51.464;-2.566;2024-02-21T11:17:37;0.30;;;0.30;;
10491;SDS011;5293;51.464;-2.566;2024-02-21T11:20:12;1.67;;;0.57;;
10491;SDS011;5293;51.464;-2.566;2024-02-21T11:22:41;0.37;;;0.33;;
10491;SDS011;5293;51.464;-2.566;2024-02-21T11:25:08;0.83;;;0.40;;
10491;SDS011;5293;51.464;-2.566;2024-02-21T11:27:36;2.33;;;0.70;;
10491;SDS011;5293;51.464;-2.566;2024-02-21T11:30:04;0.70;;;0.60;;
10491;SDS011;5293;51.464;-2.566;2024-02-21T11:32:30;0.93;;;0.60;;
10491;SDS011;5293;51.464;-2.566;2024-02-21T11:35:00;0.70;;;0.40;;
10491;SDS011;5293;51.464;-2.566;2024-02-21T11:37:30;1.87;;;0.57;;
10491;SDS011;5293;51.464;-2.566;2024-02-21T11:40:03;4.00;;;0.90;;
10491;SDS011;5293;51.464;-2.566;2024-02-21T11:42:32;2.77;;;1.17;;
10491;SDS011;5293;51.464;-2.566;2024-02-21T11:44:59;0.83;;;0.50;;
10491;SDS011;5293;51.464;-2.566;2024-02-21T11:47:25;1.63;;;0.57;;
10491;SDS011;5293;51.464;-2.566;2024-02-21T11:49:53;0.60;;;0.57;;
10491;SDS011;5293;51.464;-2.566;2024-02-21T11:52:21;1.73;;;0.90;;
10491;SDS011;5293;51.464;-2.566;2024-02-21T11:54:47;8.60;;;2.00;;
10491;SDS011;5293;51.464;-2.566;2024-02-21T11:57:13;1.00;;;0.60;;
10491;SDS011;5293;51.464;-2.566;2024-02-21T11:59:42;6.00;;;2.23;;
10491;SDS011;5293;51.464;-2.566;2024-02-21T12:02:10;3.97;;;1.37;;
10491;SDS011;5293;51.464;-2.566;2024-02-21T12:04:36;3.90;;;1.70;;
10491;SDS011;5293;51.464;-2.566;2024-02-21T12:07:02;4.03;;;1.50;;
10491;SDS011;5293;51.464;-2.566;2024-02-21T12:09:29;7.60;;;2.30;;
10491;SDS011;5293;51.464;-2.566;2024-02-21T12:11:59;4.73;;;2.10;;
10491;SDS011;5293;51.464;-2.566;2024-02-21T12:14:27;2.93;;;1.00;;
10491;SDS011;5293;51.464;-2.566;2024-02-21T12:16:56;5.07;;;2.27;;
10491;SDS011;5293;51.464;-2.566;2024-02-21T12:19:22;5.50;;;1.70;;
10491;SDS011;5293;51.464;-2.566;2024-02-21T12:21:48;8.13;;;1.60;;
10491;SDS011;5293;51.464;-2.566;2024-02-21T12:24:25;5.20;;;1.40;;
10491;SDS011;5293;51.464;-2.566;2024-02-21T12:26:52;3.50;;;1.60;;
10491;SDS011;5293;51.464;-2.566;2024-02-21T12:29:21;5.87;;;2.37;;
10491;SDS011;5293;51.464;-2.566;2024-02-21T12:31:48;3.53;;;1.23;;
10491;SDS011;5293;51.464;-2.566;2024-02-21T12:34:14;2.23;;;0.80;;
10491;SDS011;5293;51.464;-2.566;2024-02-21T12:36:41;3.83;;;1.00;;
10491;SDS011;5293;51.464;-2.566;2024-02-21T12:39:08;6.57;;;2.00;;
10491;SDS011;5293;51.464;-2.566;2024-02-21T12:41:34;5.80;;;2.17;;
10491;SDS011;5293;51.464;-2.566;2024-02-21T12:44:03;2.07;;;0.60;;
10491;SDS011;5293;51.464;-2.566;2024-02-21T12:46:32;0.67;;;0.40;;
10491;SDS011;5293;51.464;-2.566;2024-02-21T12:49:01;1.87;;;0.60;;
10491;SDS011;5293;51.464;-2.566;2024-02-21T12:51:28;4.33;;;1.40;;
10491;SDS011;5293;51.464;-2.566;2024-02-21T12:53:54;1.70;;;0.70;;
10491;SDS011;5293;51.464;-2.566;2024-02-21T12:56:20;2.43;;;1.17;;
10491;SDS011;5293;51.464;-2.566;2024-02-21T12:58:46;4.03;;;1.30;;
10491;SDS011;5293;51.464;-2.566;2024-02-21T13:01:12;1.97;;;1.17;;
10491;SDS011;5293;51.464;-2.566;2024-02-21T13:03:37;2.40;;;1.17;;
10491;SDS011;5293;51.464;-2.566;2024-02-21T13:06:03;3.80;;;1.40;;
10491;SDS011;5293;51.464;-2.566;2024-02-21T13:08:30;2.90;;;0.90;;
10491;SDS011;5293;51.464;-2.566;2024-02-21T13:10:55;4.93;;;1.80;;
10491;SDS011;5293;51.464;-2.566;2024-02-21T13:13:21;2.80;;;1.40;;
10491;SDS011;5293;51.464;-2.566;2024-02-21T13:15:47;3.23;;;1.30;;
10491;SDS011;5293;51.464;-2.566;2024-02-21T13:18:12;3.17;;;0.97;;
10491;SDS011;5293;51.464;-2.566;2024-02-21T13:20:38;3.40;;;1.67;;
10491;SDS011;5293;51.464;-2.566;2024-02-21T13:23:04;4.23;;;1.70;;
10491;SDS011;5293;51.464;-2.566;2024-02-21T13:25:29;5.27;;;1.67;;
10491;SDS011;5293;51.464;-2.566;2024-02-21T13:27:55;12.60;;;2.53;;
10491;SDS011;5293;51.464;-2.566;2024-02-21T13:30:24;3.13;;;1.37;;
10491;SDS011;5293;51.464;-2.566;2024-02-21T13:32:50;4.23;;;1.73;;
10491;SDS011;5293;51.464;-2.566;2024-02-21T13:35:16;3.90;;;1.27;;
10491;SDS011;5293;51.464;-2.566;2024-02-21T13:37:43;2.93;;;1.30;;
10491;SDS011;5293;51.464;-2.566;2024-02-21T13:40:09;1.77;;;0.90;;
10491;SDS011;5293;51.464;-2.566;2024-02-21T13:42:35;2.43;;;1.10;;
10491;SDS011;5293;51.464;-2.566;2024-02-21T13:45:04;1.67;;;1.07;;
10491;SDS011;5293;51.464;-2.566;2024-02-21T13:47:30;1.23;;;0.83;;
10491;SDS011;5293;51.464;-2.566;2024-02-21T13:49:57;0.57;;;0.50;;
10491;SDS011;5293;51.464;-2.566;2024-02-21T13:52:22;1.23;;;0.40;;
10491;SDS011;5293;51.464;-2.566;2024-02-21T13:54:51;0.80;;;0.40;;
10491;SDS011;5293;51.464;-2.566;2024-02-21T13:57:17;0.60;;;0.60;;
10491;SDS011;5293;51.464;-2.566;2024-02-21T13:59:42;1.83;;;1.33;;
10491;SDS011;5293;51.464;-2.566;2024-02-21T14:02:08;3.63;;;2.00;;
10491;SDS011;5293;51.464;-2.566;2024-02-21T14:04:35;1.90;;;1.03;;
10491;SDS011;5293;51.464;-2.566;2024-02-21T14:07:01;3.23;;;1.60;;
10491;SDS011;5293;51.464;-2.566;2024-02-21T14:09:27;4.77;;;2.20;;
10491;SDS011;5293;51.464;-2.566;2024-02-21T14:11:54;1.40;;;1.10;;
10491;SDS011;5293;51.464;-2.566;2024-02-21T14:14:20;4.53;;;1.27;;
10491;SDS011;5293;51.464;-2.566;2024-02-21T14:16:46;5.30;;;1.90;;
10491;SDS011;5293;51.464;-2.566;2024-02-21T14:19:15;3.90;;;1.43;;
10491;SDS011;5293;51.464;-2.566;2024-02-21T14:21:40;6.90;;;2.00;;
10491;SDS011;5293;51.464;-2.566;2024-02-21T14:24:06;4.80;;;1.60;;
10491;SDS011;5293;51.464;-2.566;2024-02-21T14:26:32;10.87;;;1.70;;
10491;SDS011;5293;51.464;-2.566;2024-02-21T14:28:58;7.43;;;1.87;;
10491;SDS011;5293;51.464;-2.566;2024-02-21T14:31:24;14.03;;;2.80;;
10491;SDS011;5293;51.464;-2.566;2024-02-21T14:33:50;6.53;;;1.60;;
10491;SDS011;5293;51.464;-2.566;2024-02-21T14:36:17;7.80;;;1.80;;
10491;SDS011;5293;51.464;-2.566;2024-02-21T14:38:43;12.80;;;3.07;;
10491;SDS011;5293;51.464;-2.566;2024-02-21T14:41:09;12.87;;;2.70;;
10491;SDS011;5293;51.464;-2.566;2024-02-21T14:43:38;17.13;;;3.10;;
10491;SDS011;5293;51.464;-2.566;2024-02-21T14:46:04;15.70;;;3.50;;
10491;SDS011;5293;51.464;-2.566;2024-02-21T14:48:31;13.07;;;3.17;;
10491;SDS011;5293;51.464;-2.566;2024-02-21T14:51:00;19.83;;;3.30;;